Time;durP1;ratioP1;P1;durP2;ratioP2;P2;SDS_P1;SDS_P2;PMS_P1;PMS_P2;Temp;Humidity;BMP_temperature;BMP_pressure;BME280_temperature;BME280_humidity;BME280_pressure;Samples;Min_cycle;Max_cycle;Signal;HPM_P1;HPM_P2
2021/11/11 00:00:40;;;;;;;;;;;3.30;99.90;;;2.00;100.00;96154.47;10441834;28;1921;-77
2021/11/11 00:05:43;;;;;;;;;;;2.70;99.90;;;1.97;100.00;96132.88;10440058;28;1877;-77
2021/11/11 00:10:46;;;;;;;;;;;3.30;99.90;;;1.90;100.00;96119.63;10440220;28;1984;-75
2021/11/11 00:15:49;;;;;;;;;;;3.20;99.90;;;1.86;100.00;96115.78;10432158;28;1960;-77
2021/11/11 00:20:52;;;;;;;;;;;3.40;99.90;;;1.81;100.00;96123.56;10434641;28;1842;-75
2021/11/11 00:25:55;;;;;;;;;;;3.10;99.90;;;1.84;100.00;96131.88;10438195;28;1861;-77
2021/11/11 00:30:58;;;;;;;;;;;3.10;99.90;;;1.77;100.00;96119.69;10442976;28;1934;-76
2021/11/11 00:36:01;;;;;;;;;;;2.80;99.90;;;1.77;100.00;96123.16;10437494;28;1932;-76
2021/11/11 00:41:04;;;;;;;;;;;3.00;99.90;;;1.77;100.00;96139.06;10441366;28;1925;-77
2021/11/11 00:46:07;;;;;;;;;;;2.90;99.90;;;1.71;100.00;96128.47;10438804;28;1888;-76
2021/11/11 00:51:10;;;;;;;;;;;2.60;99.90;;;1.63;100.00;96132.19;10431366;28;1906;-76
2021/11/11 00:56:15;;;;;;;;;;;;;;;1.55;100.00;96119.97;10435576;28;1865;-76
2021/11/11 01:01:18;;;;;;;;;;;2.80;99.90;;;1.50;100.00;96124.28;10439157;28;1886;-75
2021/11/11 01:06:21;;;;;;;;;;;2.80;99.90;;;1.45;100.00;96122.22;10436307;28;1869;-76
2021/11/11 01:11:24;;;;;;;;;;;2.70;99.90;;;1.45;100.00;96124.88;10437278;28;1906;-75
2021/11/11 01:16:47;;;;;;;;;;;2.70;99.90;;;1.48;100.00;96116.53;10437482;28;1952;-75
2021/11/11 01:21:50;;;;;;;;;;;2.70;99.90;;;1.46;100.00;96139.75;10445459;28;2041;-76
2021/11/11 01:26:53;;;;;;;;;;;2.60;99.90;;;1.44;100.00;96141.00;10437905;28;1965;-76
2021/11/11 01:31:56;;;;;;;;;;;2.60;99.90;;;1.42;100.00;96143.84;10432822;28;1913;-77
2021/11/11 01:36:58;;;;;;;;;;;2.70;99.90;;;1.48;100.00;96145.69;10429324;28;1905;-76
2021/11/11 01:42:01;;;;;;;;;;;2.60;99.90;;;1.57;100.00;96125.06;10439342;28;1803;-75
2021/11/11 01:47:04;;;;;;;;;;;2.80;99.90;;;1.43;100.00;96128.78;10437362;28;1982;-75
2021/11/11 01:52:08;;;;;;;;;;;2.70;99.90;;;1.40;100.00;96119.41;10434699;28;1971;-75
2021/11/11 01:57:11;;;;;;;;;;;2.60;99.90;;;1.39;100.00;96107.16;10432121;28;1935;-76
2021/11/11 02:02:14;;;;;;;;;;;2.60;99.90;;;1.46;100.00;96105.31;10433713;28;2031;-75
2021/11/11 02:07:17;;;;;;;;;;;2.70;99.90;;;1.38;100.00;96092.31;10434677;28;1970;-75
2021/11/11 02:12:25;;;;;;;;;;;2.60;99.90;;;1.39;100.00;96093.13;10439748;28;2040;-76
2021/11/11 02:17:48;;;;;;;;;;;2.60;99.90;;;1.38;100.00;96089.66;10435110;28;2027;-75
2021/11/11 02:23:11;;;;;;;;;;;2.60;99.90;;;1.32;100.00;96091.28;10439267;28;2026;-76
2021/11/11 02:28:34;;;;;;;;;;;2.60;99.90;;;1.32;100.00;96078.06;10447001;28;2081;-77
2021/11/11 02:33:57;;;;;;;;;;;2.60;99.90;;;1.24;100.00;96090.72;10437376;28;2131;-76
2021/11/11 02:39:00;;;;;;;;;;;2.50;99.90;;;1.19;100.00;96098.47;10436491;28;2037;-76
2021/11/11 02:44:03;;;;;;;;;;;2.40;99.90;;;1.12;100.00;96085.22;10438920;28;1736;-76
2021/11/11 02:49:06;;;;;;;;;;;2.40;99.90;;;1.14;100.00;96083.19;10430058;28;2089;-76
2021/11/11 02:54:09;;;;;;;;;;;2.40;99.90;;;1.14;100.00;96077.88;10432605;28;2037;-74
2021/11/11 02:59:11;;;;;;;;;;;2.30;99.90;;;1.09;100.00;96067.13;10437286;28;2167;-74
2021/11/11 03:04:14;;;;;;;;;;;2.30;99.90;;;1.03;100.00;96073.25;10426030;28;1979;-77
2021/11/11 03:09:17;;;;;;;;;;;2.30;99.90;;;1.00;100.00;96081.59;10428428;28;2018;-75
2021/11/11 03:14:20;;;;;;;;;;;2.20;99.90;;;1.01;100.00;96094.59;10429474;28;2126;-78
2021/11/11 03:19:23;;;;;;;;;;;2.20;99.90;;;0.96;100.00;96101.56;10426538;28;2201;-74
2021/11/11 03:24:26;;;;;;;;;;;2.20;99.90;;;0.98;100.00;96097.69;10424553;28;1927;-75
2021/11/11 03:29:28;;;;;;;;;;;2.20;99.90;;;0.96;100.00;96099.72;10431817;28;2010;-75
2021/11/11 03:34:31;;;;;;;;;;;2.10;99.90;;;0.91;100.00;96109.31;10440913;28;2032;-74
2021/11/11 03:39:34;;;;;;;;;;;2.10;99.90;;;0.76;100.00;96109.50;10438049;28;2100;-75
2021/11/11 03:44:38;;;;;;;;;;;2.00;99.90;;;0.72;100.00;96121.50;10437124;28;2072;-75
2021/11/11 03:49:40;;;;;;;;;;;1.40;99.90;;;0.65;100.00;96118.06;10443394;28;1966;-78
2021/11/11 03:54:44;;;;;;;;;;;1.80;99.90;;;0.58;100.00;96112.75;10440652;28;2068;-75
2021/11/11 03:59:47;;;;;;;;;;;1.80;99.90;;;0.60;100.00;96112.56;10445619;28;1967;-76
2021/11/11 04:04:49;;;;;;;;;;;1.70;99.90;;;0.58;100.00;96118.06;10458210;28;2040;-78
2021/11/11 04:09:52;;;;;;;;;;;1.70;99.90;;;0.57;100.00;96105.81;10472149;28;2127;-77
2021/11/11 04:14:56;;;;;;;;;;;;;;;0.53;100.00;96121.28;10466244;28;1983;-76
2021/11/11 04:20:19;;;;;;;;;;;;;;;0.48;100.00;96123.72;10473476;28;2029;-76
2021/11/11 04:25:48;;;;;;;;;;;;;;;0.61;100.00;96127.41;10464275;28;2080;-76
2021/11/11 04:30:55;;;;;;;;;;;;;;;0.67;100.00;96123.94;10456438;28;2056;-76
2021/11/11 04:36:05;;;;;;;;;;;1.50;99.90;;;0.77;100.00;96127.84;10436909;28;2105;-75
2021/11/11 04:41:32;;;;;;;;;;;1.70;99.90;;;0.91;100.00;96135.78;10451716;28;1449;-76
2021/11/11 04:46:56;;;;;;;;;;;1.80;99.90;;;0.89;100.00;96135.97;10438639;28;1456;-75
2021/11/11 05:02:58;;;;;;;;;;;1.90;99.90;;;0.85;100.00;96155.09;10436411;28;1912;-75
2021/11/11 05:08:01;;;;;;;;;;;1.80;99.90;;;0.79;100.00;96140.84;10429850;28;1888;-76
2021/11/11 05:13:04;;;;;;;;;;;1.80;99.90;;;0.88;100.00;96136.16;10431102;28;1925;-75
2021/11/11 05:18:07;;;;;;;;;;;1.80;99.90;;;0.89;100.00;96128.03;10432016;28;1852;-76
2021/11/11 05:23:09;;;;;;;;;;;1.80;99.90;;;0.95;100.00;96145.72;10438517;28;2053;-77
2021/11/11 05:28:12;;;;;;;;;;;1.90;99.90;;;0.92;100.00;96143.50;10439915;28;2095;-76
2021/11/11 05:33:15;;;;;;;;;;;1.90;99.90;;;0.85;100.00;96144.53;10444174;28;2081;-76
2021/11/11 05:38:18;;;;;;;;;;;1.90;99.90;;;0.75;100.00;96158.13;10442071;28;1974;-75
2021/11/11 05:43:21;;;;;;;;;;;1.80;99.90;;;0.76;100.00;96151.81;10441318;28;1885;-75
2021/11/11 05:48:24;;;;;;;;;;;1.80;99.90;;;0.82;100.00;96161.59;10446444;28;1987;-77
2021/11/11 05:53:27;;;;;;;;;;;1.70;99.90;;;0.91;100.00;96170.19;10445268;28;1981;-76
2021/11/11 05:58:29;;;;;;;;;;;1.80;99.90;;;1.04;100.00;96186.88;10448650;28;1924;-75
2021/11/11 06:03:32;;;;;;;;;;;1.90;99.90;;;1.13;100.00;96179.53;10441185;28;1872;-76
2021/11/11 06:08:35;;;;;;;;;;;2.00;99.90;;;1.26;100.00;96179.50;10432786;28;2086;-75
2021/11/11 06:13:38;;;;;;;;;;;2.10;99.90;;;1.29;100.00;96167.72;10435270;28;1925;-75
2021/11/11 06:18:41;;;;;;;;;;;2.20;99.90;;;1.34;100.00;96166.09;10434033;28;1939;-75
2021/11/11 06:23:44;;;;;;;;;;;2.30;99.90;;;1.32;100.00;96172.59;10429381;28;1923;-76
2021/11/11 06:28:47;;;;;;;;;;;2.30;99.90;;;1.33;100.00;96188.28;10431234;28;2062;-75
2021/11/11 06:33:50;;;;;;;;;;;2.30;99.90;;;1.34;100.00;96183.81;10429585;28;1918;-76
2021/11/11 06:38:53;;;;;;;;;;;2.30;99.90;;;1.42;100.00;96196.84;10430422;28;1881;-76
2021/11/11 06:43:56;;;;;;;;;;;2.30;99.90;;;1.45;100.00;96188.47;10430085;28;1897;-78
2021/11/11 06:48:59;;;;;;;;;;;2.40;99.90;;;1.42;100.00;96191.53;10428862;28;1920;-77
2021/11/11 06:54:02;;;;;;;;;;;2.30;99.90;;;1.53;100.00;96190.91;10430666;28;1977;-75
2021/11/11 06:59:05;;;;;;;;;;;2.30;99.90;;;1.51;100.00;96192.94;10433410;28;1936;-74
2021/11/11 07:04:08;;;;;;;;;;;2.40;99.90;;;1.61;100.00;96198.63;10429374;28;1840;-75
2021/11/11 07:09:11;;;;;;;;;;;2.80;99.90;;;1.68;100.00;96201.28;10428185;28;1881;-73
2021/11/11 07:14:14;;;;;;;;;;;2.90;99.90;;;1.72;100.00;96194.56;10435391;28;2060;-77
2021/11/11 07:19:17;;;;;;;;;;;3.00;99.90;;;1.69;100.00;96191.50;10434388;28;1881;-75
2021/11/11 07:24:20;;;;;;;;;;;3.00;99.90;;;1.73;100.00;96211.25;10442018;28;1826;-75
2021/11/11 07:29:23;;;;;;;;;;;3.00;99.90;;;1.81;100.00;96200.44;10435226;28;1889;-75
2021/11/11 07:34:27;;;;;;;;;;;3.00;99.90;;;1.92;100.00;96226.31;10438986;28;1910;-75
2021/11/11 07:39:30;;;;;;;;;;;3.10;99.90;;;1.99;100.00;96236.88;10437699;28;1976;-76
2021/11/11 07:44:33;;;;;;;;;;;3.20;99.90;;;2.09;100.00;96243.38;10433919;28;2001;-76
2021/11/11 07:49:36;;;;;;;;;;;3.00;99.90;;;2.24;100.00;96242.31;10441596;28;2194;-76
2021/11/11 07:54:39;;;;;;;;;;;3.30;99.90;;;2.31;100.00;96230.66;10442190;28;2011;-76
2021/11/11 07:59:42;;;;;;;;;;;3.40;99.90;;;2.44;100.00;96233.25;10438433;28;1941;-77
2021/11/11 08:04:48;;;;;;;;;;;3.40;99.90;;;2.60;100.00;96237.25;10430091;28;2020;-78
2021/11/11 08:09:56;;;;;;;;;;;3.50;99.90;;;2.78;100.00;96238.38;10441286;28;1924;-77
2021/11/11 08:14:59;;;;;;;;;;;3.70;99.90;;;2.97;100.00;96242.75;10445096;28;1913;-76
2021/11/11 08:20:02;;;;;;;;;;;3.90;99.90;;;3.06;100.00;96230.88;10430236;28;2400;-77
2021/11/11 08:25:07;;;;;;;;;;;4.00;99.90;;;3.28;100.00;96222.53;10434613;28;1963;-75
2021/11/11 08:30:10;;;;;;;;;;;4.10;99.90;;;3.49;100.00;96222.13;10429558;28;2184;-75
2021/11/11 08:35:15;;;;;;;;;;;4.30;99.90;;;3.72;100.00;96219.69;10425487;28;1973;-75
2021/11/11 08:40:18;;;;;;;;;;;4.60;99.90;;;3.94;100.00;96213.94;10433314;28;2005;-74
2021/11/11 08:45:21;;;;;;;;;;;4.80;99.90;;;4.12;100.00;96207.81;10422722;28;2254;-75
2021/11/11 08:50:28;;;;;;;;;;;4.90;99.90;;;4.32;100.00;96208.38;10428745;28;1971;-75
2021/11/11 08:55:31;;;;;;;;;;;5.10;99.90;;;4.36;100.00;96214.09;10442569;28;1974;-73
2021/11/11 09:00:34;;;;;;;;;;;5.20;99.90;;;4.61;100.00;96215.59;10431364;28;1931;-76
2021/11/11 09:05:37;;;;;;;;;;;5.40;99.90;;;4.57;100.00;96210.94;10425345;28;1912;-75
2021/11/11 09:10:40;;;;;;;;;;;5.50;99.90;;;4.74;100.00;96206.63;10432461;28;1916;-74
2021/11/11 09:16:01;;;;;;;;;;;5.60;99.90;;;4.87;100.00;96205.63;10437774;28;1913;-74
2021/11/11 09:21:04;;;;;;;;;;;5.70;99.90;;;5.01;100.00;96203.56;10430309;28;1923;-74
2021/11/11 09:26:07;;;;;;;;;;;5.80;99.90;;;5.13;100.00;96201.75;10439693;28;1998;-75
2021/11/11 09:31:11;;;;;;;;;;;5.90;99.90;;;5.33;100.00;96215.56;10426925;28;1932;-74
2021/11/11 09:36:14;;;;;;;;;;;6.00;99.90;;;5.41;100.00;96204.59;10431111;28;2037;-73
2021/11/11 09:41:17;;;;;;;;;;;6.20;99.90;;;5.62;100.00;96210.41;10429566;28;1968;-76
2021/11/11 09:46:20;;;;;;;;;;;6.30;99.90;;;5.81;100.00;96209.25;10434585;28;1909;-75
2021/11/11 09:51:23;;;;;;;;;;;6.60;99.90;;;6.01;100.00;96205.44;10424710;28;2082;-76
2021/11/11 10:01:48;;;;;;;;;;;6.90;99.90;;;6.27;100.00;96207.59;10439323;28;1957;-76
2021/11/11 10:06:51;;;;;;;;;;;7.10;99.90;;;6.50;99.13;96198.72;10432311;28;1902;-75
2021/11/11 10:11:54;;;;;;;;;;;7.20;99.90;;;6.66;97.15;96199.81;10443728;28;1928;-75
2021/11/11 10:16:57;;;;;;;;;;;7.40;99.90;;;6.71;94.71;96191.88;10434402;28;1965;-76
2021/11/11 10:22:02;;;;;;;;;;;7.60;99.90;;;6.89;95.72;96188.22;10431156;28;1897;-74
2021/11/11 10:27:05;;;;;;;;;;;7.70;99.90;;;7.10;95.25;96176.00;10438326;28;1943;-75
2021/11/11 10:32:08;;;;;;;;;;;7.80;99.90;;;7.22;92.72;96174.88;10427811;28;2043;-77
2021/11/11 10:37:11;;;;;;;;;;;8.00;99.90;;;7.38;91.61;96169.78;10429648;28;1956;-75
2021/11/11 10:42:14;;;;;;;;;;;8.10;99.90;;;7.50;91.34;96160.59;10437660;28;1936;-75
2021/11/11 10:47:17;;;;;;;;;;;8.30;99.90;;;7.66;90.99;96166.19;10437030;28;1968;-74
2021/11/11 10:52:19;;;;;;;;;;;8.60;99.90;;;7.82;89.42;96165.34;10444442;28;1898;-75
2021/11/11 10:57:22;;;;;;;;;;;8.70;99.90;;;8.00;89.48;96170.44;10435918;28;2005;-76
2021/11/11 11:02:30;;;;;;;;;;;8.70;99.90;;;8.13;88.09;96170.06;10442871;28;1996;-76
2021/11/11 11:07:33;;;;;;;;;;;;;;;8.24;86.14;96157.63;10433460;28;2091;-74
2021/11/11 11:12:36;;;;;;;;;;;8.90;99.90;;;8.21;86.78;96157.31;10441431;28;1952;-73
2021/11/11 11:17:41;;;;;;;;;;;9.00;99.90;;;8.38;86.65;96140.13;10447060;28;1922;-75
2021/11/11 11:22:45;;;;;;;;;;;;;;;8.64;84.78;96135.88;10444674;28;1932;-74
2021/11/11 11:27:47;;;;;;;;;;;9.30;99.90;;;8.66;84.71;96141.81;10442000;28;1941;-74
2021/11/11 11:32:55;;;;;;;;;;;9.40;99.90;;;8.77;85.26;96139.22;10448227;28;1877;-74
2021/11/11 11:37:59;;;;;;;;;;;;;;;8.84;85.33;96132.59;10443843;28;2035;-75
2021/11/11 11:43:02;;;;;;;;;;;9.70;99.90;;;8.69;87.28;96128.94;10445499;28;2391;-75
2021/11/11 11:48:17;;;;;;;;;;;9.70;99.90;;;8.44;88.81;96137.53;10466618;28;1975;-74
2021/11/11 11:53:24;;;;;;;;;;;9.60;99.90;;;8.38;89.81;96131.28;10469767;28;1917;-75
2021/11/11 11:58:37;;;;;;;;;;;9.50;99.90;;;8.40;89.32;96131.88;10468052;28;1949;-75
2021/11/11 12:03:48;;;;;;;;;;;9.50;99.90;;;8.44;90.39;96124.13;10470573;28;2384;-75
2021/11/11 12:09:08;;;;;;;;;;;9.60;99.90;;;8.35;91.09;96126.41;10468306;28;1952;-74
2021/11/11 12:14:20;;;;;;;;;;;9.60;99.90;;;8.26;92.06;96130.59;10459733;28;1936;-74
2021/11/11 12:40:44;;;;;;;;;;;9.40;99.90;;;7.98;94.83;96136.94;10434389;28;1945;-75
2021/11/11 12:45:47;;;;;;;;;;;9.10;99.90;;;7.77;95.85;96130.50;10436022;28;1936;-74
2021/11/11 12:50:55;;;;;;;;;;;8.80;99.90;;;7.63;95.65;96132.72;10430920;28;1917;-75
2021/11/11 12:55:58;;;;;;;;;;;8.70;99.90;;;7.57;95.63;96137.19;10432086;28;1948;-74
2021/11/11 13:01:01;;;;;;;;;;;8.70;99.90;;;7.63;95.60;96139.91;10428710;28;2334;-76
2021/11/11 13:06:05;;;;;;;;;;;8.70;99.90;;;7.36;95.76;96131.78;10436240;28;1999;-76
2021/11/11 13:11:07;;;;;;;;;;;8.50;99.90;;;7.42;95.07;96126.25;10425105;28;1996;-75
2021/11/11 13:16:11;;;;;;;;;;;8.40;99.90;;;7.44;95.39;96116.09;10424957;28;2166;-74
2021/11/11 13:21:14;;;;;;;;;;;8.40;99.90;;;7.47;95.03;96118.31;10428795;28;1935;-74
2021/11/11 13:26:34;;;;;;;;;;;8.40;99.90;;;7.68;92.26;96126.63;10429184;28;2032;-73
2021/11/11 14:04:41;;;;;;;;;;;8.40;99.90;;;7.34;93.53;96134.69;10379081;28;1961;-74
2021/11/11 16:02:34;;;;;;;;;;;6.00;99.90;;;4.54;100.00;96182.13;10422002;28;1891;-74
2021/11/11 16:23:48;;;;;;;;;;;5.30;99.90;;;3.97;100.00;96197.53;10425357;28;1956;-76
2021/11/11 16:28:53;;;;;;;;;;;5.20;99.90;;;3.83;100.00;96212.03;10429086;28;2175;-73
2021/11/11 16:33:57;;;;;;;;;;;5.10;99.90;;;3.66;100.00;96209.91;10431937;28;1940;-74
2021/11/11 16:39:00;;;;;;;;;;;4.90;99.90;;;3.48;100.00;96209.88;10423831;28;2000;-73
2021/11/11 16:44:03;;;;;;;;;;;4.80;99.90;;;3.30;100.00;96218.63;10433145;28;1972;-74
2021/11/11 16:49:06;;;;;;;;;;;4.60;99.90;;;3.21;100.00;96225.22;10434670;28;1814;-76
2021/11/11 16:54:09;;;;;;;;;;;4.50;99.90;;;3.14;100.00;96219.16;10438106;28;1357;-75
2021/11/11 16:59:12;;;;;;;;;;;4.40;99.90;;;3.17;100.00;96222.19;10434371;28;1985;-73
2021/11/11 17:04:15;;;;;;;;;;;4.30;99.90;;;3.14;100.00;96225.28;10436164;28;1301;-74
2021/11/11 17:09:19;;;;;;;;;;;4.30;99.90;;;3.17;100.00;96226.69;10438730;28;1541;-75
2021/11/11 17:14:26;;;;;;;;;;;4.30;99.90;;;3.17;100.00;96235.47;10445380;28;1275;-76
2021/11/11 17:19:29;;;;;;;;;;;4.30;99.90;;;3.16;100.00;96236.50;10427660;28;1910;-74
2021/11/11 17:24:35;;;;;;;;;;;4.40;99.90;;;3.08;100.00;96251.91;10444386;28;1588;-76
2021/11/11 17:29:38;;;;;;;;;;;4.20;99.90;;;3.18;100.00;96257.53;10435033;28;1613;-76
2021/11/11 17:34:41;;;;;;;;;;;4.30;99.90;;;3.25;100.00;96258.31;10441024;28;1294;-75
2021/11/11 17:39:45;;;;;;;;;;;4.30;99.90;;;3.06;100.00;96264.59;10447456;28;1425;-75
2021/11/11 17:44:48;;;;;;;;;;;4.30;99.90;;;2.98;100.00;96273.59;10438387;28;1257;-75
2021/11/11 17:49:52;;;;;;;;;;;4.10;99.90;;;3.02;100.00;96268.69;10441258;28;1386;-75
2021/11/11 17:54:57;;;;;;;;;;;4.10;99.90;;;3.05;100.00;96263.75;10427411;28;1972;-75
2021/11/11 18:00:00;;;;;;;;;;;4.20;99.90;;;3.14;100.00;96267.78;10445004;28;1182;-75
2021/11/11 18:05:04;;;;;;;;;;;4.20;99.90;;;3.20;100.00;96261.63;10439022;28;1401;-74
2021/11/11 18:10:10;;;;;;;;;;;4.30;99.90;;;3.25;100.00;96261.78;10441942;28;1366;-75
2021/11/11 18:15:16;;;;;;;;;;;4.30;99.90;;;3.29;100.00;96258.69;10437635;28;1910;-76
2021/11/11 18:20:19;;;;;;;;;;;4.30;99.90;;;3.38;100.00;96258.22;10439509;28;1671;-75
2021/11/11 18:25:23;;;;;;;;;;;4.40;99.90;;;3.44;100.00;96257.34;10430686;28;1441;-75
2021/11/11 18:30:46;;;;;;;;;;;4.40;99.90;;;3.42;100.00;96253.28;10440244;28;1782;-75
2021/11/11 18:36:18;;;;;;;;;;;4.50;99.90;;;3.33;100.00;96250.06;10441353;28;1977;-75
2021/11/11 18:41:23;;;;;;;;;;;4.50;99.90;;;3.28;100.00;96246.44;10432968;28;1894;-75
2021/11/11 18:46:26;;;;;;;;;;;4.40;99.90;;;3.17;100.00;96246.09;10436034;28;1500;-76
2021/11/11 18:51:31;;;;;;;;;;;4.30;99.90;;;2.97;100.00;96258.69;10437071;28;1184;-75
2021/11/11 18:56:34;;;;;;;;;;;4.20;99.90;;;3.09;100.00;96264.97;10438202;28;1952;-76
2021/11/11 19:01:37;;;;;;;;;;;4.10;99.90;;;2.94;100.00;96262.59;10441384;28;1473;-75
2021/11/11 19:06:42;;;;;;;;;;;4.10;99.90;;;3.05;100.00;96261.09;10438106;28;1400;-76
2021/11/11 19:11:51;;;;;;;;;;;4.10;99.90;;;2.83;100.00;96271.25;10444384;28;1304;-75
2021/11/11 19:16:56;;;;;;;;;;;4.00;99.90;;;2.88;100.00;96273.25;10441940;28;1977;-75
2021/11/11 19:22:00;;;;;;;;;;;3.90;99.90;;;2.69;100.00;96270.50;10446351;28;1514;-74
2021/11/11 19:27:03;;;;;;;;;;;3.90;99.90;;;2.42;100.00;96290.22;10444257;28;1457;-74
2021/11/11 19:32:06;;;;;;;;;;;3.70;99.90;;;2.61;100.00;96283.22;10442164;28;1327;-75
2021/11/11 19:37:18;;;;;;;;;;;3.60;99.90;;;2.38;100.00;96279.19;10449400;28;1906;-75
2021/11/11 19:42:30;;;;;;;;;;;3.60;99.90;;;2.61;100.00;96270.75;10444282;28;1531;-75
2021/11/11 20:09:15;;;;;;;;;;;3.60;99.90;;;2.39;100.00;96258.78;10389774;28;1415;-75
2021/11/11 20:14:36;;;;;;;;;;;3.50;99.90;;;2.44;100.00;96261.63;10449167;28;1366;-76
2021/11/11 20:35:56;;;;;;;;;;;3.30;99.90;;;2.12;100.00;96248.28;10434768;28;1906;-75
2021/11/11 20:41:21;;;;;;;;;;;3.30;99.90;;;2.36;100.00;96248.59;10434595;28;1915;-76
2021/11/11 20:51:58;;;;;;;;;;;3.30;99.90;;;2.19;100.00;96252.75;10438693;28;1398;-75
2021/11/11 20:57:16;;;;;;;;;;;3.30;99.90;;;2.16;100.00;96254.81;10434948;28;1895;-75
2021/11/11 21:02:24;;;;;;;;;;;3.20;99.90;;;2.29;100.00;96248.63;10443474;28;1394;-76
2021/11/11 21:07:30;;;;;;;;;;;3.30;99.90;;;2.35;100.00;96252.25;10434619;28;1396;-76
2021/11/11 21:12:43;;;;;;;;;;;3.30;99.90;;;2.27;100.00;96242.69;10438534;28;1200;-74
2021/11/11 21:17:53;;;;;;;;;;;3.30;99.90;;;2.08;100.00;96241.75;10433098;28;1974;-73
2021/11/11 21:22:55;;;;;;;;;;;3.30;99.90;;;2.12;100.00;96229.72;10435302;28;1514;-75
2021/11/11 21:28:00;;;;;;;;;;;3.20;99.90;;;2.15;100.00;96228.47;10425395;28;1326;-76
2021/11/11 21:33:04;;;;;;;;;;;3.30;99.90;;;2.11;100.00;96219.31;10433520;28;1132;-75
2021/11/11 21:38:30;;;;;;;;;;;3.20;99.90;;;2.27;100.00;96215.38;10427709;28;1917;-74
2021/11/11 21:43:33;;;;;;;;;;;3.20;99.90;;;1.97;100.00;96223.00;10437481;28;1400;-73
2021/11/11 21:48:37;;;;;;;;;;;3.20;99.90;;;1.68;100.00;96219.00;10426673;28;1358;-74
2021/11/11 21:53:46;;;;;;;;;;;;;;;1.58;100.00;96220.22;10442455;28;1413;-73
2021/11/11 21:58:59;;;;;;;;;;;2.70;99.90;;;1.65;100.00;96211.47;10442223;28;1980;-75
2021/11/11 22:04:09;;;;;;;;;;;2.80;99.90;;;1.88;100.00;96207.34;10443887;28;1334;-74
2021/11/11 22:25:15;;;;;;;;;;;2.80;99.90;;;1.92;100.00;96199.78;10430694;28;2054;-76
2021/11/11 22:31:51;;;;;;;;;;;3.00;99.90;;;1.71;100.00;96192.09;10431573;28;1940;-76
2021/11/11 22:35:42;;;;;;;;;;;2.90;99.90;;;1.58;100.00;96183.13;10442169;28;2044;-75
2021/11/11 22:40:46;;;;;;;;;;;2.80;99.90;;;1.76;100.00;96184.34;10444234;28;1946;-75
2021/11/11 22:45:49;;;;;;;;;;;2.80;99.90;;;1.88;100.00;96185.31;10441156;28;1948;-74
2021/11/11 22:50:57;;;;;;;;;;;2.90;99.90;;;1.94;100.00;96187.13;10438205;28;1877;-75
2021/11/11 22:56:00;;;;;;;;;;;3.00;99.90;;;1.84;100.00;96187.56;10437924;28;1899;-75
2021/11/11 23:01:16;;;;;;;;;;;3.00;99.90;;;1.55;100.00;96172.97;10441676;28;1935;-76
2021/11/11 23:06:38;;;;;;;;;;;2.80;99.90;;;1.49;100.00;96173.78;10437837;28;1936;-75
2021/11/11 23:12:07;;;;;;;;;;;2.60;99.90;;;1.58;100.00;96169.88;10441603;28;1939;-75
2021/11/11 23:17:37;;;;;;;;;;;2.50;99.90;;;1.54;100.00;96171.34;10439085;28;1973;-75
2021/11/11 23:22:49;;;;;;;;;;;2.60;99.90;;;1.55;100.00;96167.66;10437887;28;2035;-74
2021/11/11 23:33:13;;;;;;;;;;;2.60;99.90;;;1.44;100.00;96155.06;10439630;28;1919;-74
2021/11/11 23:38:16;;;;;;;;;;;2.50;99.90;;;1.22;100.00;96158.97;10438580;28;2103;-75
2021/11/11 23:43:18;;;;;;;;;;;2.40;99.90;;;1.12;100.00;96150.63;10437270;28;1950;-75
2021/11/11 23:48:24;;;;;;;;;;;;;;;1.29;100.00;96149.19;10438460;28;2201;-73
